Time;durP1;ratioP1;P1;durP2;ratioP2;P2;SDS_P1;SDS_P2;PMS_P1;PMS_P2;Temp;Humidity;BMP_temperature;BMP_pressure;BME280_temperature;BME280_humidity;BME280_pressure;Samples;Min_cycle;Max_cycle;Signal;HPM_P1;HPM_P2
2021/12/30 00:02:23;;;;;;;2.40;1.30;;;11.30;99.90;;;11.66;100.00;97906.41;5031240;28;20454;-82
2021/12/30 00:04:53;;;;;;;16.10;1.90;;;11.20;99.90;;;11.66;100.00;97906.41;5021613;28;20464;-82
2021/12/30 00:07:25;;;;;;;6.80;1.87;;;11.20;99.90;;;11.68;100.00;97914.84;5024071;28;20461;-82
2021/12/30 00:09:55;;;;;;;4.50;1.57;;;11.20;99.90;;;11.68;100.00;97922.72;5027213;28;20943;-81
2021/12/30 00:12:31;;;;;;;3.03;1.50;;;11.20;99.90;;;11.70;100.00;97925.97;5033933;28;20461;-81
2021/12/30 00:15:01;;;;;;;6.53;1.53;;;11.20;99.90;;;11.72;100.00;97927.41;5020395;28;20465;-82
2021/12/30 00:17:31;;;;;;;5.70;1.63;;;11.30;99.90;;;11.72;100.00;97926.59;5028182;28;20466;-82
2021/12/30 00:20:01;;;;;;;6.50;1.43;;;11.20;99.90;;;11.71;100.00;97927.59;5011594;28;20860;-82
2021/12/30 00:22:33;;;;;;;2.47;1.30;;;11.30;99.90;;;11.67;100.00;97919.28;5034018;28;20546;-82
2021/12/30 00:25:03;;;;;;;7.27;2.07;;;11.20;99.90;;;11.68;100.00;97923.53;5028582;28;21009;-82
2021/12/30 00:27:34;;;;;;;7.27;1.93;;;11.30;99.90;;;11.66;100.00;97927.34;5023027;28;20528;-82
2021/12/30 00:30:07;;;;;;;6.20;1.97;;;11.20;99.90;;;11.66;100.00;97922.94;5023302;28;20486;-82
2021/12/30 00:32:37;;;;;;;9.53;2.30;;;11.20;99.90;;;11.67;100.00;97931.56;5031374;28;20549;-82
2021/12/30 00:35:13;;;;;;;7.37;2.17;;;11.20;99.90;;;11.71;100.00;97922.34;5027676;28;20551;-82
2021/12/30 00:37:43;;;;;;;15.53;1.97;;;11.30;99.90;;;11.71;100.00;97919.72;5026068;28;20569;-82
2021/12/30 00:40:14;;;;;;;7.83;1.87;;;11.20;99.90;;;11.69;100.00;97926.97;5026643;28;20606;-82
2021/12/30 00:42:43;;;;;;;6.57;1.57;;;11.20;99.90;;;11.70;100.00;97933.81;5029729;28;20826;-81
2021/12/30 00:45:13;;;;;;;2.30;1.27;;;11.20;99.90;;;11.68;100.00;97944.50;5023499;28;20591;-82
2021/12/30 00:47:44;;;;;;;6.30;1.77;;;11.20;99.90;;;11.68;100.00;97938.44;5027410;28;20861;-82
2021/12/30 00:50:14;;;;;;;7.37;1.80;;;11.10;99.90;;;11.65;100.00;97957.97;5026144;28;20883;-82
2021/12/30 00:52:46;;;;;;;7.07;1.43;;;11.10;99.90;;;11.63;100.00;97964.41;5025662;28;20513;-82
2021/12/30 00:55:16;;;;;;;6.40;2.03;;;11.20;99.90;;;11.60;100.00;97969.03;5028104;28;20466;-82
2021/12/30 00:57:45;;;;;;;11.50;2.30;;;11.10;99.90;;;11.58;100.00;97976.28;5029037;28;20461;-82
2021/12/30 01:00:20;;;;;;;7.37;1.50;;;11.00;99.90;;;11.55;100.00;97976.69;5020168;28;20825;-81
2021/12/30 01:02:51;;;;;;;21.03;2.07;;;11.00;99.90;;;11.50;100.00;97986.09;5028021;28;20806;-82
2021/12/30 01:05:21;;;;;;;8.37;2.37;;;11.00;99.90;;;11.46;100.00;97977.81;5023145;28;20556;-82
2021/12/30 01:07:52;;;;;;;5.40;1.70;;;10.90;99.90;;;11.42;100.00;97984.44;5029730;28;20516;-82
2021/12/30 01:10:24;;;;;;;5.80;1.70;;;10.80;99.90;;;11.39;100.00;97987.47;5026806;28;20457;-82
2021/12/30 01:12:56;;;;;;;4.33;1.50;;;10.70;99.90;;;11.39;100.00;98000.53;5022605;28;20489;-82
2021/12/30 01:15:34;;;;;;;7.00;1.50;;;10.70;99.90;;;11.37;100.00;97996.50;5033629;28;20449;-82
2021/12/30 01:20:50;;;;;;;6.33;1.67;;;10.70;99.90;;;11.35;100.00;97999.31;5024611;28;20490;-82
2021/12/30 01:23:22;;;;;;;6.30;1.63;;;10.70;99.90;;;11.32;100.00;97994.47;5028626;28;20878;-82
2021/12/30 01:25:55;;;;;;;5.03;1.47;;;10.70;99.90;;;11.32;100.00;98001.50;5023820;28;20474;-82
2021/12/30 01:28:27;;;;;;;7.30;1.80;;;10.70;99.90;;;11.31;100.00;97992.88;5024438;28;20454;-82
2021/12/30 01:30:58;;;;;;;5.60;2.17;;;10.70;99.90;;;11.31;100.00;98007.75;5025510;28;20470;-82
2021/12/30 01:33:28;;;;;;;10.13;2.37;;;10.70;99.90;;;11.29;100.00;98007.94;5026901;28;20497;-82
2021/12/30 01:35:57;;;;;;;7.10;1.80;;;10.60;99.90;;;11.30;100.00;98016.59;5027116;28;21029;-82
2021/12/30 01:38:30;;;;;;;6.17;1.43;;;10.60;99.90;;;11.28;100.00;98019.41;5031465;28;20477;-82
2021/12/30 01:41:01;;;;;;;5.30;1.43;;;10.60;99.90;;;11.29;100.00;98028.88;5026594;28;20970;-82
2021/12/30 01:43:33;;;;;;;9.37;2.90;;;10.60;99.90;;;11.26;100.00;98028.47;5027486;28;20470;-82
2021/12/30 01:46:04;;;;;;;7.03;1.43;;;10.50;99.90;;;11.24;100.00;98031.28;5022137;28;20589;-82
2021/12/30 01:48:34;;;;;;;7.70;1.47;;;10.50;99.90;;;11.24;100.00;98036.53;5027715;28;20462;-82
2021/12/30 01:51:07;;;;;;;10.07;1.67;;;10.60;99.90;;;11.25;100.00;98029.44;5023671;28;20462;-82
2021/12/30 01:53:39;;;;;;;6.73;2.03;;;10.60;99.90;;;11.25;100.00;98040.72;5027512;28;20466;-82
2021/12/30 01:56:08;;;;;;;5.33;1.90;;;10.60;99.90;;;11.26;100.00;98047.59;5026205;28;20474;-82
2021/12/30 01:58:39;;;;;;;4.63;1.63;;;10.60;99.90;;;11.27;100.00;98049.22;5025766;28;20967;-82
2021/12/30 02:01:09;;;;;;;8.93;1.93;;;10.60;99.90;;;11.27;100.00;98044.00;5018891;28;20978;-82
2021/12/30 02:03:40;;;;;;;13.53;1.70;;;10.70;99.90;;;11.28;100.00;98044.81;5024437;28;20512;-81
2021/12/30 02:06:11;;;;;;;4.90;1.47;;;10.70;99.90;;;11.29;100.00;98041.97;5027998;28;20492;-82
2021/12/30 02:08:41;;;;;;;3.00;1.37;;;10.70;99.90;;;11.29;100.00;98057.69;5027112;28;20789;-82
2021/12/30 02:11:11;;;;;;;5.67;1.90;;;10.70;99.90;;;11.31;100.00;98062.75;5020197;28;20474;-82
2021/12/30 02:13:41;;;;;;;6.03;1.80;;;10.70;99.90;;;11.33;100.00;98058.91;5026167;28;20462;-82
2021/12/30 02:16:10;;;;;;;12.50;2.00;;;10.80;99.90;;;11.36;100.00;98058.53;5026169;28;20531;-82
2021/12/30 02:18:40;;;;;;;4.07;1.80;;;10.70;99.90;;;11.37;100.00;98065.41;5020820;28;20472;-81
2021/12/30 02:21:11;;;;;;;4.97;1.50;;;10.70;99.90;;;11.41;100.00;98068.44;5028729;28;20571;-82
2021/12/30 02:23:41;;;;;;;5.47;1.60;;;10.90;99.90;;;11.42;100.00;98070.84;5025673;28;20458;-82
2021/12/30 02:26:16;;;;;;;5.50;1.93;;;10.90;99.90;;;11.50;100.00;98075.94;5028820;28;21131;-82
2021/12/30 02:28:47;;;;;;;5.53;1.73;;;11.00;99.90;;;11.50;100.00;98083.81;5021753;28;20455;-82
2021/12/30 02:31:21;;;;;;;11.17;1.90;;;11.00;99.90;;;11.51;100.00;98088.06;5024246;28;20573;-82
2021/12/30 02:33:51;;;;;;;6.73;1.63;;;10.90;99.90;;;11.53;100.00;98086.03;5021660;28;20541;-82
2021/12/30 02:36:26;;;;;;;8.03;1.90;;;11.00;99.90;;;11.54;100.00;98103.38;5026806;28;20861;-82
2021/12/30 02:38:55;;;;;;;4.07;1.30;;;11.00;99.90;;;11.56;100.00;98100.56;5026541;28;20481;-82
2021/12/30 02:41:27;;;;;;;9.00;1.97;;;11.00;99.90;;;11.56;100.00;98106.59;5024616;28;20446;-82
2021/12/30 02:43:57;;;;;;;7.53;1.80;;;11.00;99.90;;;11.54;100.00;98108.63;5023049;28;20748;-82
2021/12/30 02:46:28;;;;;;;5.63;2.07;;;10.90;99.90;;;11.56;100.00;98105.78;5023753;28;20450;-82
2021/12/30 02:48:58;;;;;;;4.30;2.00;;;11.00;99.90;;;11.60;100.00;98107.03;5022506;28;20986;-82
2021/12/30 02:51:29;;;;;;;4.37;1.90;;;11.00;99.90;;;11.60;100.00;98113.09;5029629;28;20869;-82
2021/12/30 02:53:59;;;;;;;6.03;1.70;;;11.00;99.90;;;11.63;100.00;98109.25;5025255;28;20454;-82
2021/12/30 02:56:31;;;;;;;9.10;2.00;;;11.00;99.90;;;11.66;100.00;98118.56;5028163;28;20462;-82
2021/12/30 02:59:01;;;;;;;8.53;1.67;;;11.20;99.90;;;11.69;100.00;98115.56;5026774;28;20454;-82
2021/12/30 03:01:33;;;;;;;7.83;1.80;;;11.20;99.90;;;11.68;100.00;98117.38;5030618;28;20466;-82
2021/12/30 03:04:05;;;;;;;3.87;1.80;;;11.20;99.90;;;11.71;100.00;98121.44;5028675;28;20456;-82
2021/12/30 03:06:36;;;;;;;4.77;2.03;;;11.20;99.90;;;11.72;100.00;98117.81;5029018;28;20442;-81
2021/12/30 03:09:06;;;;;;;9.67;1.77;;;11.20;99.90;;;11.73;100.00;98114.22;5029221;28;20461;-82
2021/12/30 03:11:35;;;;;;;4.60;1.93;;;11.20;99.90;;;11.77;100.00;98123.28;5024152;28;20469;-82
2021/12/30 03:14:04;;;;;;;11.37;1.90;;;11.30;99.90;;;11.78;100.00;98110.00;5028931;28;20865;-82
2021/12/30 03:16:37;;;;;;;7.73;2.20;;;11.20;99.90;;;11.80;100.00;98115.06;5026843;28;20920;-82
2021/12/30 03:19:07;;;;;;;4.70;1.50;;;11.30;99.90;;;11.83;100.00;98109.44;5023835;28;20897;-82
2021/12/30 03:21:40;;;;;;;3.80;1.57;;;11.30;99.90;;;11.84;100.00;98113.66;5026712;28;20489;-82
2021/12/30 03:24:09;;;;;;;3.40;1.40;;;11.30;99.90;;;11.84;100.00;98119.69;5028178;28;20461;-82
2021/12/30 03:26:38;;;;;;;2.83;1.30;;;11.30;99.90;;;11.84;100.00;98113.66;5028740;28;20551;-82
2021/12/30 03:29:08;;;;;;;3.37;1.20;;;11.30;99.90;;;11.84;100.00;98111.03;5028688;28;20470;-82
2021/12/30 03:31:37;;;;;;;1.70;1.03;;;11.30;99.90;;;11.87;100.00;98108.03;5029560;28;20494;-82
2021/12/30 03:34:07;;;;;;;1.53;1.10;;;11.30;99.90;;;11.87;100.00;98113.28;5027138;28;20476;-81
2021/12/30 03:36:39;;;;;;;2.43;1.30;;;11.30;99.90;;;11.88;100.00;98110.47;5019603;28;20466;-82
2021/12/30 03:39:08;;;;;;;3.77;1.30;;;11.30;99.90;;;11.88;100.00;98117.50;5028776;28;20454;-81
2021/12/30 03:41:38;;;;;;;6.73;1.20;;;11.30;99.90;;;11.91;100.00;98114.50;5028552;28;20466;-82
2021/12/30 03:44:08;;;;;;;1.80;1.30;;;11.40;99.90;;;11.93;100.00;98112.50;5029783;28;20510;-82
2021/12/30 03:46:39;;;;;;;2.43;1.00;;;11.40;99.90;;;11.93;100.00;98117.75;5028214;28;20501;-82
2021/12/30 03:49:09;;;;;;;1.63;0.90;;;11.40;99.90;;;11.96;100.00;98127.84;5030100;28;20450;-82
2021/12/30 03:51:41;;;;;;;1.87;0.93;;;11.50;99.90;;;11.97;100.00;98135.53;5029343;28;20466;-82
2021/12/30 03:54:12;;;;;;;1.83;1.00;;;11.50;99.90;;;11.99;100.00;98119.59;5026477;28;20466;-82
2021/12/30 03:56:41;;;;;;;0.80;0.80;;;11.50;99.90;;;11.99;100.00;98130.88;5029199;28;20466;-81
2021/12/30 03:59:11;;;;;;;4.97;0.90;;;11.40;99.90;;;12.01;100.00;98130.66;5027578;28;20556;-81
2021/12/30 04:01:41;;;;;;;0.93;0.83;;;11.60;99.90;;;12.02;100.00;98129.69;5027173;28;20466;-81
2021/12/30 04:04:10;;;;;;;3.80;0.80;;;11.50;99.90;;;12.04;100.00;98135.56;5028061;28;20497;-81
2021/12/30 04:06:40;;;;;;;3.17;1.07;;;11.50;99.90;;;12.06;100.00;98134.34;5021063;28;20494;-81
2021/12/30 04:09:09;;;;;;;1.70;1.13;;;11.60;99.90;;;12.08;100.00;98136.75;5029559;28;20450;-81
2021/12/30 04:11:40;;;;;;;1.00;0.80;;;11.60;99.90;;;12.09;100.00;98146.25;5027339;28;20465;-81
2021/12/30 04:14:11;;;;;;;1.10;0.90;;;11.60;99.90;;;12.07;100.00;98156.13;5028548;28;20518;-81
2021/12/30 04:16:42;;;;;;;2.93;1.00;;;11.50;99.90;;;12.08;100.00;98168.22;5022964;28;20533;-81
2021/12/30 04:19:12;;;;;;;9.83;1.10;;;11.60;99.90;;;12.06;100.00;98168.41;5029399;28;20462;-81
2021/12/30 04:21:43;;;;;;;5.30;1.53;;;11.60;99.90;;;12.05;100.00;98158.13;5027526;28;20485;-81
2021/12/30 04:24:13;;;;;;;2.83;1.20;;;11.60;99.90;;;12.05;100.00;98158.13;5028962;28;20542;-81
2021/12/30 04:26:43;;;;;;;1.57;1.00;;;11.50;99.90;;;12.04;100.00;98174.88;5027731;28;20863;-81
2021/12/30 04:29:13;;;;;;;4.43;1.13;;;11.50;99.90;;;12.07;100.00;98171.84;5023099;28;20462;-81
2021/12/30 04:31:43;;;;;;;1.67;1.00;;;11.60;99.90;;;12.09;100.00;98169.84;5028252;28;20466;-81
2021/12/30 04:34:16;;;;;;;40.40;26.87;;;11.70;99.90;;;12.08;100.00;98165.59;5026357;28;20919;-80
2021/12/30 04:36:47;;;;;;;7.03;3.20;;;11.60;99.90;;;12.10;100.00;98176.72;5029002;28;20487;-81
2021/12/30 04:39:18;;;;;;;5.33;1.63;;;11.70;99.90;;;12.09;100.00;98175.09;5022599;28;20518;-81
2021/12/30 04:41:48;;;;;;;1.23;0.90;;;11.60;99.90;;;12.11;100.00;98170.47;5021542;28;21136;-81
2021/12/30 04:44:18;;;;;;;2.03;0.90;;;11.60;99.90;;;12.14;100.00;98185.81;5025755;28;20478;-81
2021/12/30 04:46:49;;;;;;;123.80;66.77;;;11.60;99.90;;;12.15;100.00;98190.03;5022532;28;20563;-83
2021/12/30 04:49:19;;;;;;;2.93;2.10;;;11.60;99.90;;;12.17;100.00;98190.66;5025663;28;20501;-82
2021/12/30 04:51:51;;;;;;;1.20;0.80;;;11.70;99.90;;;12.19;100.00;98186.03;5029331;28;21041;-81
2021/12/30 04:54:21;;;;;;;1.07;0.93;;;11.70;99.90;;;12.22;100.00;98190.88;5028463;28;20858;-81
2021/12/30 04:56:53;;;;;;;2.00;1.70;;;11.80;99.90;;;12.22;100.00;98195.34;5024956;28;21018;-81
2021/12/30 04:59:23;;;;;;;64.53;39.50;;;11.70;99.90;;;12.23;100.00;98192.50;5023913;28;20881;-83
2021/12/30 05:01:54;;;;;;;7.50;5.17;;;11.70;99.90;;;12.25;100.00;98197.56;5018816;28;20505;-81
2021/12/30 05:04:25;;;;;;;2.30;1.20;;;11.70;99.90;;;12.26;100.00;98193.91;5016426;28;20477;-81
2021/12/30 05:06:56;;;;;;;2.60;0.90;;;11.80;99.90;;;12.26;100.00;98192.13;5028670;28;20846;-81
2021/12/30 05:09:27;;;;;;;33.90;23.60;;;11.70;99.90;;;12.26;100.00;98207.03;5024858;28;20993;-79
2021/12/30 05:11:56;;;;;;;7.97;4.00;;;11.70;99.90;;;12.26;100.00;98207.03;5021294;28;20462;-81
2021/12/30 05:14:27;;;;;;;2.03;1.70;;;11.70;99.90;;;12.29;100.00;98209.25;5027633;28;20804;-81
2021/12/30 05:17:02;;;;;;;5.13;1.20;;;11.70;99.90;;;12.28;100.00;98216.34;5030667;28;20886;-80
2021/12/30 05:19:32;;;;;;;34.27;19.73;;;11.70;99.90;;;12.31;100.00;98209.91;5023783;28;20558;-80
2021/12/30 05:22:04;;;;;;;21.60;11.77;;;11.80;99.90;;;12.34;100.00;98199.81;5029742;28;20484;-80
2021/12/30 05:24:33;;;;;;;2.77;2.00;;;11.80;99.90;;;12.33;100.00;98213.94;5028269;28;21087;-80
2021/12/30 05:27:04;;;;;;;9.90;1.40;;;11.70;99.90;;;12.33;100.00;98213.13;5030748;28;20548;-81
2021/12/30 05:29:33;;;;;;;1.47;0.90;;;11.70;99.90;;;12.34;100.00;98223.44;5030866;28;20453;-81
2021/12/30 05:32:04;;;;;;;1.27;1.07;;;11.70;99.90;;;12.34;100.00;98235.72;5019651;28;20443;-81
2021/12/30 05:34:36;;;;;;;6.30;1.00;;;11.80;99.90;;;12.36;100.00;98238.97;5027857;28;20458;-81
2021/12/30 05:37:06;;;;;;;4.20;0.90;;;11.80;99.90;;;12.36;100.00;98231.09;5030372;28;20532;-81
2021/12/30 05:39:40;;;;;;;0.90;0.80;;;11.80;99.90;;;12.40;100.00;98243.63;5030061;28;20979;-81
2021/12/30 05:42:10;;;;;;;2.80;1.00;;;11.90;99.90;;;12.42;100.00;98239.03;5025822;28;20870;-81
2021/12/30 05:44:41;;;;;;;2.17;0.97;;;11.90;99.90;;;12.44;100.00;98250.13;5029980;28;20885;-81
2021/12/30 05:47:10;;;;;;;1.37;0.90;;;12.00;99.90;;;12.45;100.00;98248.31;5029901;28;20501;-81
2021/12/30 05:49:43;;;;;;;1.23;0.90;;;11.90;99.90;;;12.43;100.00;98245.88;5026907;28;20454;-81
2021/12/30 05:52:14;;;;;;;2.40;0.90;;;11.90;99.90;;;12.43;100.00;98253.72;5028915;28;20481;-81
2021/12/30 05:54:44;;;;;;;6.93;1.20;;;11.90;99.90;;;12.44;100.00;98257.97;5024777;28;20449;-81
2021/12/30 05:57:14;;;;;;;3.50;0.80;;;11.90;99.90;;;12.48;100.00;98256.59;5041814;28;20457;-81
2021/12/30 05:59:46;;;;;;;0.70;0.70;;;12.00;99.90;;;12.49;100.00;98252.97;5030276;28;20443;-81
2021/12/30 06:02:15;;;;;;;0.77;0.67;;;12.00;99.90;;;12.59;100.00;98268.34;5029575;28;20955;-81
2021/12/30 06:04:45;;;;;;;4.73;2.00;;;12.20;99.90;;;12.58;100.00;98278.03;5028456;28;20469;-81
2021/12/30 06:07:17;;;;;;;0.70;0.70;;;12.10;99.90;;;12.62;100.00;98281.09;5029323;28;20501;-81
2021/12/30 06:09:47;;;;;;;3.80;0.90;;;12.20;99.90;;;12.63;100.00;98293.22;5027828;28;20468;-81
2021/12/30 06:12:16;;;;;;;0.80;0.70;;;12.20;99.90;;;12.63;100.00;98292.38;5036105;28;20472;-81
2021/12/30 06:14:47;;;;;;;0.90;0.77;;;12.10;99.90;;;12.65;100.00;98295.63;5029973;28;20860;-81
2021/12/30 06:17:16;;;;;;;2.23;0.90;;;12.20;99.90;;;12.62;100.00;98286.34;5020625;28;20568;-81
2021/12/30 06:19:47;;;;;;;0.87;0.80;;;12.10;99.90;;;12.66;100.00;98292.00;5029746;28;20954;-81
2021/12/30 06:22:18;;;;;;;2.03;0.80;;;12.20;99.90;;;12.70;100.00;98296.69;5018636;28;20451;-81
2021/12/30 06:24:49;;;;;;;1.83;0.80;;;12.30;99.90;;;12.69;100.00;98308.16;5029199;28;20442;-81
2021/12/30 06:27:20;;;;;;;1.77;0.90;;;12.30;99.90;;;12.69;100.00;98316.03;5023393;28;20523;-81
2021/12/30 06:29:50;;;;;;;0.90;0.70;;;12.20;99.90;;;12.71;100.00;98306.16;5026284;28;20465;-81
2021/12/30 06:32:19;;;;;;;1.20;1.10;;;12.30;99.90;;;12.73;100.00;98311.22;5023013;28;20537;-81
2021/12/30 06:34:49;;;;;;;4.10;0.80;;;12.30;99.90;;;12.73;100.00;98319.09;5028765;28;20508;-81
2021/12/30 06:37:19;;;;;;;3.23;1.00;;;12.30;99.90;;;12.74;100.00;98310.22;5025049;28;20466;-81
2021/12/30 06:39:49;;;;;;;1.03;0.83;;;12.30;99.90;;;12.73;100.00;98319.09;5033086;28;20438;-81
2021/12/30 06:42:18;;;;;;;1.83;0.80;;;12.20;99.90;;;12.75;100.00;98327.56;5022458;28;20490;-81
2021/12/30 06:44:48;;;;;;;0.70;0.60;;;12.30;99.90;;;12.75;100.00;98328.38;5036221;28;20516;-81
2021/12/30 06:47:18;;;;;;;2.23;0.70;;;12.30;99.90;;;12.76;100.00;98329.19;5033079;28;20562;-81
2021/12/30 06:49:48;;;;;;;2.73;0.73;;;12.30;99.90;;;12.76;100.00;98330.00;5032868;28;20501;-81
2021/12/30 06:52:19;;;;;;;0.80;0.70;;;12.30;99.90;;;12.77;100.00;98342.13;5026246;28;20538;-81
2021/12/30 06:54:49;;;;;;;0.77;0.70;;;12.30;99.90;;;12.79;100.00;98344.53;5033690;28;20454;-81
2021/12/30 06:57:19;;;;;;;3.80;0.97;;;12.30;99.90;;;12.81;100.00;98340.72;5044208;28;20469;-81
2021/12/30 06:59:48;;;;;;;0.87;0.80;;;12.30;99.90;;;12.80;100.00;98340.94;5033737;28;20540;-81
2021/12/30 07:02:18;;;;;;;0.70;0.60;;;12.30;99.90;;;12.81;100.00;98342.53;5022817;28;20928;-81
2021/12/30 07:04:48;;;;;;;1.17;0.77;;;12.30;99.90;;;12.82;100.00;98341.53;5033004;28;20457;-81
2021/12/30 07:07:20;;;;;;;0.80;0.80;;;12.40;99.90;;;12.84;100.00;98339.53;5032840;28;20501;-81
2021/12/30 07:09:51;;;;;;;0.80;0.70;;;12.50;99.90;;;12.83;100.00;98337.91;5025708;28;20848;-81
2021/12/30 07:12:22;;;;;;;1.10;1.00;;;12.40;99.90;;;12.83;100.00;98335.28;5034797;28;20543;-81
2021/12/30 07:14:51;;;;;;;0.73;0.70;;;12.40;99.90;;;12.80;100.00;98330.44;5032866;28;20446;-81
2021/12/30 07:17:21;;;;;;;1.63;0.70;;;12.30;99.90;;;12.81;100.00;98332.03;5049740;28;20541;-81
2021/12/30 07:19:52;;;;;;;2.30;0.90;;;12.30;99.90;;;12.84;100.00;98339.53;5030161;28;20516;-81
2021/12/30 07:22:23;;;;;;;6.00;0.80;;;12.40;99.90;;;12.86;100.00;98333.09;5021913;28;20504;-81
2021/12/30 07:25:16;;;;;;;0.70;0.70;;;12.40;99.90;;;12.84;100.00;98329.03;5032495;28;20446;-81
2021/12/30 07:27:49;;;;;;;0.80;0.70;;;12.30;99.90;;;12.87;100.00;98324.22;5032804;28;20930;-81
2021/12/30 07:30:21;;;;;;;1.20;0.90;;;12.40;99.90;;;12.86;100.00;98325.22;5049571;28;20799;-81
2021/12/30 07:32:52;;;;;;;3.37;0.70;;;12.40;99.90;;;12.88;100.00;98323.19;5035971;28;20516;-81
2021/12/30 07:35:27;;;;;;;0.80;0.77;;;12.40;99.90;;;12.89;100.00;98329.25;5029412;28;20552;-81
2021/12/30 07:37:58;;;;;;;0.83;0.77;;;12.50;99.90;;;12.88;100.00;98332.88;5032696;28;20457;-81
2021/12/30 07:40:30;;;;;;;1.80;0.90;;;12.50;99.90;;;12.90;100.00;98342.19;5032852;28;20473;-81
2021/12/30 07:43:00;;;;;;;0.80;0.80;;;12.50;99.90;;;12.91;100.00;98364.00;5032420;28;20446;-81
2021/12/30 07:45:31;;;;;;;1.10;0.90;;;12.50;99.90;;;12.90;100.00;98362.38;5033084;28;20448;-81
2021/12/30 07:48:01;;;;;;;0.93;0.70;;;12.50;99.90;;;12.93;100.00;98362.00;5031827;28;20580;-81
2021/12/30 07:50:32;;;;;;;1.40;1.10;;;12.50;99.90;;;12.93;100.00;98362.00;5031920;28;20456;-81
2021/12/30 07:53:03;;;;;;;1.13;0.97;;;12.40;99.90;;;12.96;100.00;98366.84;5019537;28;20788;-81
2021/12/30 07:55:33;;;;;;;1.20;1.10;;;12.50;99.90;;;12.96;100.00;98366.84;5031467;28;20446;-81
2021/12/30 07:58:03;;;;;;;2.13;0.80;;;12.50;99.90;;;12.98;100.00;98370.09;5042730;28;20454;-82
2021/12/30 08:00:33;;;;;;;1.30;0.70;;;12.60;99.90;;;13.01;100.00;98367.91;5022670;28;21292;-81
2021/12/30 08:03:02;;;;;;;1.27;0.70;;;12.60;99.90;;;12.99;100.00;98372.53;5032003;28;20454;-81
2021/12/30 08:05:31;;;;;;;0.70;0.70;;;12.60;99.90;;;13.04;100.00;98371.94;5031363;28;20504;-81
2021/12/30 08:08:02;;;;;;;0.80;0.70;;;12.60;99.90;;;13.07;100.00;98363.69;5031881;28;20494;-81
2021/12/30 08:10:35;;;;;;;0.90;0.70;;;12.70;99.90;;;13.08;100.00;98375.81;5030917;28;20450;-81
2021/12/30 08:13:04;;;;;;;0.80;0.80;;;12.70;99.90;;;13.08;100.00;98375.81;5028223;28;20470;-81
2021/12/30 08:15:34;;;;;;;0.90;0.80;;;12.70;99.90;;;13.11;100.00;98380.69;5029871;28;20450;-81
2021/12/30 08:18:03;;;;;;;1.97;0.93;;;12.70;99.90;;;13.12;100.00;98377.03;5025764;28;20556;-81
2021/12/30 08:20:33;;;;;;;1.67;0.80;;;12.70;99.90;;;13.14;100.00;98379.50;5031945;28;20979;-81
2021/12/30 08:23:05;;;;;;;0.80;0.70;;;12.70;99.90;;;13.10;100.00;98374.63;5031453;28;20839;-81
2021/12/30 08:25:36;;;;;;;1.83;0.90;;;12.70;99.90;;;13.17;100.00;98379.91;5031320;28;20823;-81
2021/12/30 08:28:06;;;;;;;1.00;0.80;;;12.80;99.90;;;13.14;100.00;98384.75;5025085;28;20529;-81
2021/12/30 08:30:35;;;;;;;1.00;0.80;;;12.70;99.90;;;13.18;100.00;98376.28;5031605;28;20446;-81
2021/12/30 08:33:05;;;;;;;0.83;0.80;;;12.80;99.90;;;13.19;100.00;98377.88;5030120;28;20926;-81
2021/12/30 08:35:36;;;;;;;1.10;0.97;;;12.80;99.90;;;13.21;100.00;98381.16;5035691;28;20466;-81
2021/12/30 08:38:07;;;;;;;1.13;1.00;;;12.80;99.90;;;13.20;100.00;98383.97;5031444;28;20467;-81
2021/12/30 08:40:37;;;;;;;1.93;1.10;;;12.80;99.90;;;13.19;100.00;98369.22;5031642;28;20512;-81
2021/12/30 08:43:07;;;;;;;1.37;0.97;;;12.80;99.90;;;13.20;100.00;98366.38;5030917;28;20532;-83
2021/12/30 08:45:36;;;;;;;3.73;0.97;;;12.80;99.90;;;13.20;100.00;98378.69;5028542;28;20517;-81
2021/12/30 08:48:08;;;;;;;0.90;0.80;;;12.80;99.90;;;13.19;100.00;98383.16;5031304;28;20495;-81
2021/12/30 08:50:38;;;;;;;1.00;0.90;;;12.70;99.90;;;13.20;100.00;98382.16;5031281;28;20975;-81
2021/12/30 08:53:09;;;;;;;1.17;1.07;;;12.80;99.90;;;13.20;100.00;98379.53;5019350;28;20465;-81
2021/12/30 08:55:40;;;;;;;1.20;1.10;;;12.80;99.90;;;13.20;100.00;98379.53;5043385;28;20445;-81
2021/12/30 08:58:10;;;;;;;1.13;0.90;;;12.80;99.90;;;13.23;100.00;98387.00;5030582;28;20458;-82
2021/12/30 09:00:42;;;;;;;1.00;0.90;;;12.80;99.90;;;13.23;100.00;98399.31;5026148;28;20445;-81
2021/12/30 09:03:12;;;;;;;1.33;0.90;;;12.80;99.90;;;13.25;100.00;98397.31;5030114;28;20450;-81
2021/12/30 09:05:42;;;;;;;1.00;0.90;;;12.80;99.90;;;13.27;100.00;98398.75;5030677;28;21015;-81
2021/12/30 09:08:14;;;;;;;0.80;0.73;;;12.90;99.90;;;13.27;100.00;98417.13;5031102;28;20494;-81
2021/12/30 09:10:46;;;;;;;1.10;1.00;;;12.90;99.90;;;13.27;100.00;98414.50;5030774;28;20454;-81
2021/12/30 09:13:18;;;;;;;1.23;1.13;;;12.90;99.90;;;13.25;100.00;98416.53;5029538;28;20833;-81
2021/12/30 09:15:49;;;;;;;1.27;1.10;;;12.80;99.90;;;13.30;100.00;98432.50;5030884;28;20533;-81
2021/12/30 09:18:18;;;;;;;2.80;1.27;;;12.80;99.90;;;13.32;100.00;98421.81;5030239;28;20512;-81
2021/12/30 09:20:48;;;;;;;1.20;1.10;;;12.90;99.90;;;13.32;100.00;98422.63;5039146;28;20542;-81
2021/12/30 09:23:19;;;;;;;1.10;1.00;;;12.90;99.90;;;13.35;100.00;98426.66;5032317;28;20482;-81
2021/12/30 09:25:49;;;;;;;1.80;1.17;;;12.90;99.90;;;13.33;100.00;98437.34;5030613;28;20453;-81
2021/12/30 09:28:19;;;;;;;1.20;1.10;;;12.90;99.90;;;13.34;100.00;98449.50;5030335;28;20486;-81
2021/12/30 09:30:49;;;;;;;3.40;1.17;;;12.90;99.90;;;13.36;100.00;98439.59;5030911;28;20481;-81
2021/12/30 09:33:18;;;;;;;2.47;1.83;;;12.90;99.90;;;13.39;100.00;98443.66;5030229;28;20462;-81
2021/12/30 09:35:48;;;;;;;2.10;1.13;;;13.00;99.90;;;13.40;100.00;98447.91;5025153;28;20450;-81
2021/12/30 09:38:22;;;;;;;1.60;1.00;;;13.00;99.90;;;13.39;100.00;98448.91;5029564;28;20523;-81
2021/12/30 09:40:51;;;;;;;1.03;0.93;;;13.00;99.90;;;13.41;100.00;98452.16;5030875;28;21005;-81
2021/12/30 09:43:20;;;;;;;1.53;1.13;;;12.90;99.90;;;13.41;100.00;98460.03;5028936;28;20454;-81
2021/12/30 09:45:51;;;;;;;1.10;0.90;;;12.90;99.90;;;13.43;100.00;98456.19;5030384;28;20492;-81
2021/12/30 09:48:21;;;;;;;1.07;0.97;;;13.00;99.90;;;13.46;100.00;98458.47;5039679;28;20514;-81
2021/12/30 09:50:54;;;;;;;1.90;0.80;;;13.00;99.90;;;13.48;100.00;98456.44;5029928;28;20442;-81
2021/12/30 09:53:27;;;;;;;0.90;0.90;;;13.10;99.90;;;13.46;100.00;98458.47;5029942;28;20536;-81
2021/12/30 09:55:59;;;;;;;1.00;0.90;;;13.00;99.90;;;13.45;100.00;98456.84;5030061;28;20454;-81
2021/12/30 09:58:30;;;;;;;1.30;0.80;;;13.00;99.90;;;13.45;100.00;98462.09;5021630;28;20487;-81
2021/12/30 10:01:02;;;;;;;1.20;1.10;;;13.00;99.90;;;13.50;100.00;98454.41;5028910;28;20453;-81
2021/12/30 10:03:31;;;;;;;0.80;0.80;;;13.10;99.90;;;13.51;100.00;98456.03;5029686;28;20545;-81
2021/12/30 10:06:09;;;;;;;0.90;0.80;;;13.10;99.90;;;13.56;100.00;98458.09;5029341;28;20520;-81
2021/12/30 10:08:52;;;;;;;1.20;1.00;;;13.20;99.90;;;13.54;100.00;98445.13;5021631;28;20504;-81
2021/12/30 10:11:22;;;;;;;1.00;0.80;;;13.10;99.90;;;13.61;100.00;98451.22;5029096;28;20450;-81
2021/12/30 10:13:55;;;;;;;0.80;0.80;;;13.20;99.90;;;13.58;100.00;98435.84;5030420;28;20454;-81
2021/12/30 10:16:27;;;;;;;1.00;0.80;;;13.10;99.90;;;13.59;100.00;98437.50;5030447;28;20986;-81
2021/12/30 10:19:05;;;;;;;1.10;1.00;;;13.20;99.90;;;13.54;100.00;98449.56;5040869;28;20510;-81
2021/12/30 10:21:40;;;;;;;0.80;0.80;;;13.00;99.90;;;13.54;100.00;98445.13;5029946;28;20493;-81
2021/12/30 10:24:13;;;;;;;1.87;1.00;;;13.00;99.90;;;13.59;100.00;98448.00;5023725;28;20505;-81
2021/12/30 10:26:51;;;;;;;0.87;0.87;;;13.20;99.90;;;13.62;100.00;98441.53;5028864;28;20454;-81
2021/12/30 10:29:20;;;;;;;1.23;0.90;;;13.20;99.90;;;13.58;100.00;98451.63;5030304;28;20942;-81
2021/12/30 10:31:53;;;;;;;2.77;1.10;;;13.10;99.90;;;13.65;100.00;98449.03;5026383;28;20466;-81